Time;durP1;ratioP1;P1;durP2;ratioP2;P2;SDS_P1;SDS_P2;PMS_P1;PMS_P2;Temp;Humidity;BMP_temperature;BMP_pressure;BME280_temperature;BME280_humidity;BME280_pressure;Samples;Min_cycle;Max_cycle;Signal;HPM_P1;HPM_P2
2023/07/04 00:00:07;;;;;;;;;4.00;4.00;;;;;21.73;36.67;101018.28;5072000;28;45342;-64
2023/07/04 00:02:33;;;;;;;;;4.50;4.00;;;;;21.71;36.65;101011.31;5059695;28;46563;-63
2023/07/04 00:04:59;;;;;;;;;6.00;4.75;;;;;21.68;36.52;101009.66;5059640;28;45275;-63
2023/07/04 00:07:25;;;;;;;;;5.75;4.50;;;;;21.66;36.81;101005.34;5059977;28;45303;-63
2023/07/04 00:09:51;;;;;;;;;4.00;4.00;;;;;21.64;36.51;101013.47;5059730;28;45484;-63
2023/07/04 00:12:16;;;;;;;;;6.75;4.25;;;;;21.63;36.30;101008.22;5059821;28;45462;-63
2023/07/04 00:14:44;;;;;;;;;5.25;4.00;;;;;21.59;36.87;101012.88;5061473;28;45222;-63
2023/07/04 00:17:09;;;;;;;;;5.75;4.50;;;;;21.55;36.61;101011.28;5063510;28;45267;-63
2023/07/04 00:19:35;;;;;;;;;4.75;4.00;;;;;21.54;36.54;101012.25;5063120;28;45520;-63
2023/07/04 00:22:00;;;;;;;;;4.50;4.50;;;;;21.52;36.54;101015.00;5062970;28;45363;-64
2023/07/04 00:24:25;;;;;;;;;4.00;4.00;;;;;21.52;36.85;101014.13;5063400;28;45334;-63
2023/07/04 00:26:51;;;;;;;;;5.00;4.00;;;;;21.49;36.41;101019.66;5063126;28;45418;-63
2023/07/04 00:29:17;;;;;;;;;4.75;2.25;;;;;21.48;36.64;101015.25;5065399;28;55639;-63
2023/07/04 00:31:42;;;;;;;;;5.25;4.00;;;;;21.43;37.01;101012.81;5062891;28;45391;-63
2023/07/04 00:34:08;;;;;;;;;5.00;5.00;;;;;21.42;36.99;101014.66;5062988;28;45480;-64
2023/07/04 00:36:34;;;;;;;;;7.00;4.25;;;;;21.40;36.95;101007.66;5061639;28;45275;-63
2023/07/04 00:39:00;;;;;;;;;7.75;4.75;;;;;21.38;37.00;101004.22;5063185;28;45276;-63
2023/07/04 00:41:27;;;;;;;;;5.50;5.00;;;;;21.36;37.23;101008.78;5061185;28;47036;-63
2023/07/04 00:44:09;;;;;;;;;4.50;4.50;;;;;21.34;37.13;101006.19;5063246;28;45273;-63
2023/07/04 00:46:41;;;;;;;;;5.00;5.00;;;;;21.34;36.97;101014.19;5063073;28;45477;-63
2023/07/04 00:49:17;;;;;;;;;5.50;5.25;;;;;21.33;36.67;101015.13;5061334;28;45463;-63
2023/07/04 00:51:58;;;;;;;;;5.50;4.25;;;;;21.29;37.33;101005.56;5068201;28;47084;-63
2023/07/04 00:54:30;;;;;;;;;4.00;3.75;;;;;21.29;37.06;101012.75;5083054;28;45340;-63
2023/07/04 00:57:06;;;;;;;;;5.00;4.75;;;;;21.27;37.36;101018.19;5082995;28;45338;-63
2023/07/04 00:59:34;;;;;;;;;7.75;5.25;;;;;21.23;36.97;101014.81;5079512;28;45465;-63
2023/07/04 01:02:00;;;;;;;;;6.00;6.00;;;;;21.22;37.17;101012.19;5062400;28;46181;-63
2023/07/04 01:04:26;;;;;;;;;5.00;5.00;;;;;21.21;37.15;101013.16;5062231;28;45804;-63
2023/07/04 01:06:59;;;;;;;;;5.00;4.25;;;;;21.19;36.91;101018.56;5062813;28;45495;-63
2023/07/04 01:09:28;;;;;;;;;4.50;4.25;;;;;21.16;37.53;101016.09;5062527;28;45240;-63
2023/07/04 01:11:54;;;;;;;;;10.00;4.00;;;;;21.15;37.39;101005.47;5062191;28;47103;-63
2023/07/04 01:14:25;;;;;;;;;4.75;3.25;;;;;21.16;37.49;101009.88;5062372;28;45301;-63
2023/07/04 01:16:52;;;;;;;;;5.75;5.75;;;;;21.14;37.09;101014.44;5061043;28;45296;-63
2023/07/04 01:19:46;;;;;;;;;5.75;4.50;;;;;21.12;37.23;101009.19;5062122;28;45571;-63
2023/07/04 01:22:31;;;;;;;;;7.75;4.25;;;;;21.11;37.71;101004.78;5066200;28;46042;-63
2023/07/04 01:25:20;;;;;;;;;7.50;5.00;;;;;21.09;37.84;101009.34;5061978;28;45244;-63
2023/07/04 01:27:49;;;;;;;;;7.00;6.00;;;;;21.10;37.31;101016.41;5062326;28;45417;-63
2023/07/04 01:30:17;;;;;;;;;4.25;4.25;;;;;21.09;37.77;101015.56;5061950;28;45185;-63
2023/07/04 01:32:43;;;;;;;;;6.00;4.50;;;;;21.10;37.40;101019.09;5071741;28;45350;-63
2023/07/04 01:35:12;;;;;;;;;4.75;4.00;;;;;21.11;37.64;101023.50;5064409;28;45381;-63
2023/07/04 01:37:37;;;;;;;;;5.00;4.50;;;;;21.10;37.32;101024.44;5062198;28;45253;-64
2023/07/04 01:40:07;;;;;;;;;7.25;3.00;;;;;21.06;37.48;101020.19;5061763;28;45520;-64
2023/07/04 01:42:33;;;;;;;;;9.25;5.50;;;;;21.06;37.95;101026.41;5061814;28;46355;-63
2023/07/04 01:45:04;;;;;;;;;6.00;4.00;;;;;21.04;37.84;101020.28;5060383;28;45366;-63
2023/07/04 01:47:30;;;;;;;;;4.00;2.50;;;;;21.04;37.35;101028.31;5061907;28;45213;-63
2023/07/04 01:49:56;;;;;;;;;5.50;5.25;;;;;21.02;37.22;101018.63;5061501;28;45439;-63
2023/07/04 01:52:23;;;;;;;;;6.25;4.50;;;;;21.02;37.83;101026.63;5072641;28;45430;-63
2023/07/04 01:54:48;;;;;;;;;6.00;4.25;;;;;21.00;37.40;101016.03;5081841;28;45473;-63
2023/07/04 01:57:14;;;;;;;;;4.25;4.00;;;;;20.98;38.03;101022.41;5082089;28;45303;-63
2023/07/04 01:59:39;;;;;;;;;3.00;2.25;;;;;20.97;37.90;101013.53;5077539;28;45424;-63
2023/07/04 02:02:05;;;;;;;;;4.00;4.00;;;;;20.98;38.02;101019.75;5061597;28;45896;-63
2023/07/04 02:04:31;;;;;;;;;3.25;3.00;;;;;20.94;38.12;101013.69;5061298;28;45311;-63
2023/07/04 02:06:56;;;;;;;;;5.00;4.25;;;;;20.94;37.89;101019.91;5061610;28;45193;-63
2023/07/04 02:09:24;;;;;;;;;5.25;4.25;;;;;20.96;38.02;101027.00;5061644;28;45170;-63
2023/07/04 02:11:49;;;;;;;;;5.25;4.25;;;;;20.93;37.71;101017.34;5061409;28;46600;-63
2023/07/04 02:14:15;;;;;;;;;4.00;3.00;;;;;20.93;37.97;101020.84;5061547;28;45211;-64
2023/07/04 02:16:40;;;;;;;;;8.50;4.00;;;;;20.93;38.17;101022.69;5061589;28;45583;-63
2023/07/04 02:19:06;;;;;;;;;4.00;4.00;;;;;20.91;37.72;101017.41;5061239;28;45349;-63
2023/07/04 02:21:31;;;;;;;;;5.00;2.25;;;;;20.91;37.67;101013.88;5061230;28;45205;-63
2023/07/04 02:23:56;;;;;;;;;5.00;3.50;;;;;20.89;37.75;101013.09;5061280;28;45417;-63
2023/07/04 02:26:22;;;;;;;;;4.25;4.25;;;;;20.86;37.71;101005.25;5061423;28;45462;-64
2023/07/04 02:28:47;;;;;;;;;6.75;3.75;;;;;20.83;37.91;101003.59;5061186;28;45489;-63
2023/07/04 02:31:13;;;;;;;;;6.25;5.00;;;;;20.84;37.87;100999.09;5061351;28;46142;-63
2023/07/04 02:33:39;;;;;;;;;4.25;3.25;;;;;20.82;38.16;101011.66;5060991;28;45346;-64
2023/07/04 02:36:06;;;;;;;;;6.50;5.00;;;;;20.81;37.94;101016.16;5059862;28;45268;-63
2023/07/04 02:38:32;;;;;;;;;5.00;4.00;;;;;20.79;38.03;101010.03;5060499;28;45231;-63
2023/07/04 02:40:57;;;;;;;;;6.00;4.00;;;;;20.75;38.49;101005.81;5060760;28;46110;-62
2023/07/04 02:43:23;;;;;;;;;7.25;4.50;;;;;20.75;38.54;101000.47;5060841;28;45232;-63
2023/07/04 02:45:48;;;;;;;;;4.25;3.50;;;;;20.74;38.27;101006.75;5059938;28;45341;-62
2023/07/04 02:48:14;;;;;;;;;5.25;4.00;;;;;20.75;37.98;101003.13;5060727;28;45231;-63
2023/07/04 02:50:40;;;;;;;;;4.75;4.75;;;;;20.74;38.53;100998.72;5060859;28;46266;-63
2023/07/04 02:53:05;;;;;;;;;6.00;4.00;;;;;20.75;38.30;101000.47;5077754;28;49660;-63
2023/07/04 02:55:31;;;;;;;;;4.25;4.25;;;;;20.71;38.53;100994.41;5079782;28;45201;-62
2023/07/04 02:57:56;;;;;;;;;5.00;5.00;;;;;20.73;38.09;101005.03;5081037;28;45637;-62
2023/07/04 03:00:22;;;;;;;;;5.00;4.25;;;;;20.74;38.34;100999.59;5079314;28;46418;-62
2023/07/04 03:02:47;;;;;;;;;2.00;1.25;;;;;20.75;38.52;101004.00;5080744;28;45453;-62
2023/07/04 03:05:13;;;;;;;;;6.00;2.75;;;;;20.75;38.13;100996.00;5079872;28;45520;-63
2023/07/04 03:07:38;;;;;;;;;6.00;4.25;;;;;20.75;38.52;100993.34;5079500;28;45327;-63
2023/07/04 03:10:04;;;;;;;;;3.00;3.00;;;;;20.76;38.27;100991.50;5069184;27;46758;-63
2023/07/04 03:12:29;;;;;;;;;3.00;3.00;;;;;20.75;38.86;100993.34;5060591;28;45384;-63
2023/07/04 03:14:55;;;;;;;;;5.25;4.75;;;;;20.78;38.14;101006.50;5060702;28;45317;-62
2023/07/04 03:17:20;;;;;;;;;5.50;3.75;;;;;20.77;38.12;100996.75;5060354;28;47177;-63
2023/07/04 03:19:46;;;;;;;;;7.00;6.00;;;;;20.78;38.11;100986.97;5058960;28;48071;-62
2023/07/04 03:22:11;;;;;;;;;11.25;11.00;;;;;20.78;38.21;100994.97;5060265;28;45301;-63
2023/07/04 03:24:36;;;;;;;;;6.50;3.75;;;;;20.78;38.20;100992.31;5060596;28;45378;-62
2023/07/04 03:27:02;;;;;;;;;6.00;6.00;;;;;20.79;38.48;100999.34;5058837;28;49306;-62
2023/07/04 03:29:27;;;;;;;;;3.75;3.75;;;;;20.77;38.68;100990.56;5060291;28;45317;-62
2023/07/04 03:31:53;;;;;;;;;5.75;5.75;;;;;20.74;38.11;100986.25;5060231;28;45201;-62
2023/07/04 03:34:18;;;;;;;;;4.00;4.00;;;;;20.77;38.49;100994.09;5060381;28;45317;-63
2023/07/04 03:36:43;;;;;;;;;8.50;6.50;;;;;20.77;38.47;100988.75;5060134;28;45517;-63
2023/07/04 03:39:09;;;;;;;;;17.50;14.25;;;;;20.77;38.90;100991.41;5060153;28;46189;-63
2023/07/04 03:41:34;;;;;;;;;11.75;9.25;;;;;20.77;38.90;100991.41;5059844;28;45248;-62
2023/07/04 03:44:00;;;;;;;;;8.50;8.00;;;;;20.77;38.92;100990.56;5060501;28;45280;-63
2023/07/04 03:46:26;;;;;;;;;9.75;9.00;;;;;20.76;38.97;100987.03;5060231;28;45306;-62
2023/07/04 03:48:51;;;;;;;;;5.75;4.75;;;;;20.77;38.70;100988.75;5058748;28;45241;-62
2023/07/04 03:51:17;;;;;;;;;5.75;5.00;;;;;20.77;38.80;100986.09;5061844;28;45458;-63
2023/07/04 03:53:42;;;;;;;;;8.50;6.25;;;;;20.78;39.16;100986.97;5080587;28;45671;-63
2023/07/04 03:56:07;;;;;;;;;21.75;18.25;;;;;20.78;38.49;100992.31;5080092;28;45438;-63
2023/07/04 03:58:33;;;;;;;;;5.25;4.25;;;;;20.75;38.43;100988.00;5080238;28;46253;-63
2023/07/04 04:01:00;;;;;;;;;4.75;4.75;;;;;20.73;38.58;100983.69;5064953;28;45369;-63
2023/07/04 04:03:25;;;;;;;;;5.50;4.00;;;;;20.74;38.51;100985.38;5059819;28;45319;-62
2023/07/04 04:05:51;;;;;;;;;10.00;4.75;;;;;20.76;38.92;100991.50;5058182;28;49145;-62
2023/07/04 04:08:16;;;;;;;;;6.50;5.25;;;;;20.75;39.06;100988.00;5059827;28;46512;-62
2023/07/04 04:10:42;;;;;;;;;6.00;5.00;;;;;20.74;38.99;100988.03;5059619;28;45231;-62
2023/07/04 04:13:07;;;;;;;;;5.50;3.25;;;;;20.75;39.17;100979.97;5060117;28;45393;-63
2023/07/04 04:15:33;;;;;;;;;4.25;4.25;;;;;20.76;38.82;100988.84;5059590;28;45201;-62
2023/07/04 04:17:58;;;;;;;;;4.25;4.00;;;;;20.75;39.14;100982.66;5059611;28;46142;-63
2023/07/04 04:20:25;;;;;;;;;5.50;5.00;;;;;20.76;38.91;100986.19;5059806;28;45161;-63
2023/07/04 04:22:50;;;;;;;;;5.50;3.25;;;;;20.74;39.07;100985.38;5063038;28;45598;-62
2023/07/04 04:25:17;;;;;;;;;5.50;5.00;;;;;20.72;39.22;100976.59;5059260;28;45293;-63
2023/07/04 04:27:43;;;;;;;;;7.00;5.00;;;;;20.75;39.35;100989.78;5058381;28;46379;-63
2023/07/04 04:30:10;;;;;;;;;5.00;4.75;;;;;20.72;39.21;100988.13;5059465;28;45271;-63
2023/07/04 04:32:40;;;;;;;;;6.50;4.50;;;;;20.72;39.32;100995.28;5059849;28;45477;-62
2023/07/04 04:35:08;;;;;;;;;8.00;4.75;;;;;20.73;39.25;100987.19;5059275;28;45482;-63
2023/07/04 04:37:34;;;;;;;;;8.50;5.25;;;;;20.71;39.09;100985.56;5059463;28;46968;-63
2023/07/04 04:40:00;;;;;;;;;7.75;7.75;;;;;20.72;38.97;100992.63;5059114;28;45330;-63
2023/07/04 04:42:26;;;;;;;;;8.00;7.50;;;;;20.69;39.56;100996.28;5058254;28;45349;-64
2023/07/04 04:44:53;;;;;;;;;7.00;5.75;;;;;20.68;39.53;100999.91;5059271;28;45363;-64
2023/07/04 04:47:22;;;;;;;;;7.75;7.50;;;;;20.67;39.56;101002.66;5057903;28;45447;-63
2023/07/04 04:49:47;;;;;;;;;7.50;6.00;;;;;20.65;39.34;100996.53;5059053;28;45829;-63
2023/07/04 04:52:12;;;;;;;;;9.25;7.00;;;;;20.61;39.25;100995.81;5069051;28;45433;-63
2023/07/04 04:54:38;;;;;;;;;13.50;7.75;;;;;20.60;39.82;100994.09;5079480;28;46900;-63
2023/07/04 04:57:03;;;;;;;;;11.25;7.50;;;;;20.56;39.42;100989.84;5079321;28;46094;-63
2023/07/04 04:59:29;;;;;;;;;6.50;5.75;;;;;20.57;39.84;100992.44;5076592;28;45416;-63
2023/07/04 05:01:54;;;;;;;;;8.75;6.25;;;;;20.55;39.40;100996.13;5067501;28;45366;-62
2023/07/04 05:04:19;;;;;;;;;8.25;6.25;;;;;20.53;39.90;100998.03;5062351;28;45333;-62
2023/07/04 05:06:45;;;;;;;;;10.75;7.00;;;;;20.50;39.95;101000.84;5060852;28;52670;-62
2023/07/04 05:09:10;;;;;;;;;5.25;5.25;;;;;20.49;39.77;100996.44;5060963;28;55094;-62
2023/07/04 05:11:35;;;;;;;;;7.00;6.50;;;;;20.46;39.71;100998.34;5062621;28;45319;-62
2023/07/04 05:14:00;;;;;;;;;6.00;6.00;;;;;20.45;39.94;100990.41;5061971;28;49888;-62
2023/07/04 05:16:26;;;;;;;;;6.25;5.00;;;;;20.44;39.95;100994.03;5062185;28;51273;-62
2023/07/04 05:18:51;;;;;;;;;7.00;6.00;;;;;20.42;39.54;100994.09;5060980;28;45525;-62
2023/07/04 05:21:19;;;;;;;;;9.75;7.50;;;;;20.41;39.51;100999.53;5062307;28;45186;-62
2023/07/04 05:23:46;;;;;;;;;6.00;6.00;;;;;20.41;39.63;100994.19;5062168;28;45508;-63
2023/07/04 05:26:17;;;;;;;;;9.00;7.00;;;;;20.39;40.04;100998.72;5060734;28;46391;-62
2023/07/04 05:28:44;;;;;;;;;10.75;9.50;;;;;20.39;39.76;100999.59;5062192;28;45283;-60
2023/07/04 05:31:14;;;;;;;;;10.50;7.75;;;;;20.37;39.73;100998.81;5062409;28;45298;-60
2023/07/04 05:33:39;;;;;;;;;8.75;7.50;;;;;20.35;40.27;100995.38;5061746;28;45488;-60
2023/07/04 05:36:12;;;;;;;;;8.00;8.00;;;;;20.35;39.83;100992.72;5061929;28;45937;-60
2023/07/04 05:38:38;;;;;;;;;9.50;7.50;;;;;20.35;39.78;100995.38;5060751;28;45480;-61
2023/07/04 05:41:11;;;;;;;;;8.00;7.00;;;;;20.33;39.88;100986.56;5061963;28;45314;-60
2023/07/04 05:43:37;;;;;;;;;10.75;7.50;;;;;20.32;40.05;100990.19;5061902;28;45541;-60
2023/07/04 05:46:04;;;;;;;;;7.25;7.00;;;;;20.33;39.94;100994.59;5060584;28;47234;-60
2023/07/04 05:48:29;;;;;;;;;7.00;7.00;;;;;20.33;39.90;100997.25;5061657;28;45260;-60
2023/07/04 05:50:57;;;;;;;;;9.25;7.75;;;;;20.33;40.67;100996.41;5061963;28;45866;-60
2023/07/04 05:53:25;;;;;;;;;6.25;6.25;;;;;20.34;40.15;101001.66;5081440;28;45454;-62
2023/07/04 05:55:51;;;;;;;;;10.75;9.00;;;;;20.35;40.17;100999.84;5081861;28;46101;-62
2023/07/04 05:58:18;;;;;;;;;10.25;8.00;;;;;20.37;40.13;101005.97;5081843;28;45307;-59
2023/07/04 06:00:43;;;;;;;;;7.50;7.25;;;;;20.38;40.20;101007.69;5068553;28;45325;-59
2023/07/04 06:03:09;;;;;;;;;6.00;6.00;;;;;20.40;40.81;101006.69;5061491;28;45288;-59
2023/07/04 06:05:39;;;;;;;;;6.25;6.25;;;;;20.40;40.25;101009.34;5061464;28;45526;-60
2023/07/04 06:08:05;;;;;;;;;10.00;7.00;;;;;20.42;40.84;101010.13;5080448;27;45239;-59
2023/07/04 06:10:30;;;;;;;;;12.50;8.00;;;;;20.44;40.89;101007.38;5069145;27;45210;-63
2023/07/04 06:12:55;;;;;;;;;7.00;7.00;;;;;20.43;40.56;100997.66;5086674;27;45549;-59
2023/07/04 06:15:21;;;;;;;;;10.25;8.25;;;;;20.48;40.62;101005.41;5070107;27;45310;-65
2023/07/04 06:17:46;;;;;;;;;6.25;6.25;;;;;20.49;40.39;100993.78;5061128;28;48616;-62
2023/07/04 06:20:11;;;;;;;;;7.75;6.50;;;;;20.50;40.59;100993.69;5061311;28;45339;-63
2023/07/04 06:22:37;;;;;;;;;8.50;4.50;;;;;20.46;40.72;100981.47;5061133;28;45509;-63
2023/07/04 06:25:04;;;;;;;;;7.75;6.25;;;;;20.56;40.57;100985.38;5069813;28;48302;-61
2023/07/04 06:27:30;;;;;;;;;8.00;7.00;;;;;20.56;40.53;100988.03;5063584;28;45308;-61
2023/07/04 06:29:56;;;;;;;;;5.75;5.50;;;;;20.58;40.96;100977.31;5061364;28;45510;-60
2023/07/04 06:32:22;;;;;;;;;7.00;7.00;;;;;20.64;40.63;100982.31;5060187;28;45383;-66
2023/07/04 06:34:48;;;;;;;;;6.50;4.75;;;;;20.65;40.57;100986.69;5060810;28;46107;-65
2023/07/04 06:37:13;;;;;;;;;7.25;7.00;;;;;20.68;40.38;100991.00;5061028;28;45200;-65
2023/07/04 06:39:38;;;;;;;;;5.25;4.00;;;;;20.72;41.00;100995.28;5061372;28;45227;-63
2023/07/04 06:42:04;;;;;;;;;8.25;4.00;;;;;20.72;40.43;100987.28;5059650;28;45557;-66
2023/07/04 06:44:29;;;;;;;;;9.00;7.00;;;;;20.74;40.39;100985.38;5061028;28;46132;-62
2023/07/04 06:46:54;;;;;;;;;7.75;6.25;;;;;20.76;40.54;100972.81;5060961;28;45248;-64
2023/07/04 06:49:20;;;;;;;;;6.75;6.25;;;;;20.77;40.59;100975.41;5061005;28;45216;-59
2023/07/04 06:51:45;;;;;;;;;10.00;7.00;;;;;20.80;40.79;100976.19;5065547;28;45751;-64
2023/07/04 06:54:10;;;;;;;;;7.50;6.25;;;;;20.81;40.54;100981.44;5080896;28;52920;-66
2023/07/04 06:56:37;;;;;;;;;9.00;7.00;;;;;20.85;40.48;100990.16;5071963;28;45450;-61
2023/07/04 06:59:03;;;;;;;;;8.25;6.25;;;;;20.86;40.88;100989.22;5073794;27;45502;-67
2023/07/04 07:01:29;;;;;;;;;6.75;6.25;;;;;20.92;40.82;100999.56;5079179;27;45447;-67
2023/07/04 07:03:55;;;;;;;;;9.25;8.00;;;;;20.92;40.28;101000.44;5068037;28;45446;-57
2023/07/04 07:06:21;;;;;;;;;6.75;6.00;;;;;20.96;40.46;101003.81;5065395;28;45326;-65
2023/07/04 07:08:46;;;;;;;;;6.00;5.00;;;;;21.02;40.58;101013.28;5080439;28;46757;-67
2023/07/04 07:11:14;;;;;;;;;4.25;4.00;;;;;21.05;40.87;101015.81;5076053;28;45302;-65
2023/07/04 07:13:40;;;;;;;;;9.00;5.00;;;;;21.07;40.90;101017.44;5060159;28;46248;-65
2023/07/04 07:16:12;;;;;;;;;10.00;6.50;;;;;21.10;40.38;101009.25;5060604;28;45174;-65
2023/07/04 07:18:38;;;;;;;;;6.00;5.00;;;;;21.14;40.89;101009.94;5058804;28;45262;-65
2023/07/04 07:21:05;;;;;;;;;8.75;6.00;;;;;21.17;41.00;101007.13;5060220;28;45248;-64
2023/07/04 07:23:33;;;;;;;;;5.50;5.50;;;;;21.22;40.77;101014.88;5058828;28;48053;-65
2023/07/04 07:26:00;;;;;;;;;10.50;7.25;;;;;21.24;40.35;101013.00;5060160;28;45299;-64
2023/07/04 07:28:27;;;;;;;;;7.25;5.00;;;;;21.28;40.42;101017.22;5060504;28;45286;-65
2023/07/04 07:31:05;;;;;;;;;8.25;6.75;;;;;21.30;40.39;101015.31;5060188;28;45527;-65
2023/07/04 07:33:31;;;;;;;;;7.50;7.00;;;;;21.35;41.07;101007.91;5058825;28;45447;-65
2023/07/04 07:35:57;;;;;;;;;6.25;6.25;;;;;21.38;40.65;101010.44;5070094;28;45276;-65
2023/07/04 07:38:23;;;;;;;;;7.00;4.00;;;;;21.41;40.72;101004.91;5062501;28;45290;-65
2023/07/04 07:40:53;;;;;;;;;1.00;1.00;;;;;21.46;40.34;101009.13;5060080;28;45341;-65
2023/07/04 07:43:18;;;;;;;;;8.25;6.75;;;;;21.46;40.96;101003.78;5059914;28;46305;-65
2023/07/04 07:45:45;;;;;;;;;6.25;4.25;;;;;21.50;40.87;101010.69;5060205;28;45255;-65
2023/07/04 07:48:11;;;;;;;;;5.50;5.50;;;;;21.54;40.42;101007.75;5060006;28;45245;-65
2023/07/04 07:50:37;;;;;;;;;8.00;6.00;;;;;21.58;40.88;101011.16;5059719;28;45558;-64
2023/07/04 07:53:02;;;;;;;;;5.50;5.50;;;;;21.61;40.33;101002.97;5075291;28;46030;-65
2023/07/04 07:55:27;;;;;;;;;4.25;4.25;;;;;21.65;40.20;101006.34;5078992;28;45357;-65
2023/07/04 07:57:53;;;;;;;;;4.75;4.75;;;;;21.68;40.47;101004.31;5072644;28;45378;-67
2023/07/04 08:00:18;;;;;;;;;8.25;6.75;;;;;21.68;40.20;100998.97;5062416;28;56701;-65
2023/07/04 08:02:43;;;;;;;;;5.75;5.25;;;;;21.73;40.44;101001.41;5059350;28;47226;-64
2023/07/04 08:05:09;;;;;;;;;9.25;7.00;;;;;21.77;40.83;100991.38;5068547;28;45358;-65
2023/07/04 08:07:34;;;;;;;;;7.50;4.00;;;;;21.80;40.16;100985.84;5064131;28;45453;-65
2023/07/04 08:09:59;;;;;;;;;6.25;5.00;;;;;21.82;40.26;100984.81;5067182;28;48709;-65
2023/07/04 08:12:25;;;;;;;;;6.00;5.00;;;;;21.88;40.49;100983.59;5060642;28;45361;-65
2023/07/04 08:14:51;;;;;;;;;6.75;6.25;;;;;21.92;40.66;100985.13;5059909;28;45335;-65
2023/07/04 08:17:16;;;;;;;;;7.00;6.25;;;;;21.98;40.44;100976.75;5059700;28;45303;-65
2023/07/04 08:19:41;;;;;;;;;8.00;6.00;;;;;21.95;40.10;100976.94;5064422;28;45431;-65
2023/07/04 08:22:06;;;;;;;;;5.50;3.00;;;;;22.04;40.17;100973.72;5059467;28;46559;-65
2023/07/04 08:24:32;;;;;;;;;7.25;5.25;;;;;22.03;40.26;100968.47;5058575;28;45416;-65
2023/07/04 08:26:58;;;;;;;;;10.50;6.25;;;;;22.11;39.85;100973.38;5059554;28;46227;-65
2023/07/04 08:29:24;;;;;;;;;6.75;6.25;;;;;22.12;39.99;100970.59;5059702;28;45232;-65
2023/07/04 08:31:50;;;;;;;;;9.00;6.50;;;;;22.16;40.51;100964.13;5059346;28;46501;-65
2023/07/04 08:34:15;;;;;;;;;6.25;6.00;;;;;22.18;39.97;100975.59;5058211;28;45388;-65
2023/07/04 08:36:44;;;;;;;;;9.00;6.25;;;;;22.21;40.53;100970.06;5061303;28;45256;-66
2023/07/04 08:39:09;;;;;;;;;7.25;6.00;;;;;22.26;40.31;100977.81;5063119;28;45284;-66
2023/07/04 08:41:42;;;;;;;;;5.25;5.25;;;;;22.29;40.07;100974.97;5062639;28;45800;-66
2023/07/04 08:44:23;;;;;;;;;9.25;7.00;;;;;22.34;39.69;100969.31;5063148;28;45501;-66
2023/07/04 08:46:53;;;;;;;;;7.75;6.00;;;;;22.37;39.85;100962.00;5063033;28;45271;-66
2023/07/04 08:49:29;;;;;;;;;6.50;6.00;;;;;22.43;40.18;100962.56;5062753;28;45316;-66
2023/07/04 08:52:02;;;;;;;;;6.00;6.00;;;;;22.47;40.21;100964.13;5077833;28;46126;-66
2023/07/04 08:54:28;;;;;;;;;8.25;6.50;;;;;22.52;40.19;100968.22;5083072;28;45446;-66
2023/07/04 08:56:58;;;;;;;;;6.25;5.25;;;;;22.58;40.00;100961.66;5082983;28;45331;-66
2023/07/04 08:59:37;;;;;;;;;6.00;6.00;;;;;22.63;39.86;100950.63;5082956;28;45208;-66
2023/07/04 09:02:39;;;;;;;;;5.75;4.25;;;;;22.71;40.03;100956.41;5082795;28;47038;-66
2023/07/04 09:05:16;;;;;;;;;7.75;7.00;;;;;22.75;39.77;100947.19;5082800;28;45284;-66
2023/07/04 09:07:42;;;;;;;;;10.50;5.25;;;;;22.83;40.01;100954.75;5081607;28;45450;-66
2023/07/04 09:10:23;;;;;;;;;7.25;6.75;;;;;22.87;39.85;100946.44;5072472;28;45492;-66
2023/07/04 09:12:49;;;;;;;;;6.25;6.00;;;;;22.92;39.79;100938.13;5062624;28;45312;-66
2023/07/04 09:15:27;;;;;;;;;8.00;8.00;;;;;22.98;39.95;100948.44;5062296;28;45232;-66
2023/07/04 09:18:19;;;;;;;;;7.75;7.00;;;;;23.01;39.66;100952.75;5069934;28;45343;-66
2023/07/04 09:20:49;;;;;;;;;8.00;8.00;;;;;23.07;39.69;100959.53;5080880;28;45271;-66
2023/07/04 09:23:21;;;;;;;;;6.00;5.00;;;;;23.10;39.43;100945.94;5082374;28;47110;-66
2023/07/04 09:25:46;;;;;;;;;6.75;5.50;;;;;23.14;39.88;100934.06;5082248;28;45282;-66
2023/07/04 09:28:12;;;;;;;;;8.00;6.00;;;;;23.18;39.46;100935.63;5081460;28;45279;-66
2023/07/04 09:30:38;;;;;;;;;7.25;6.00;;;;;23.19;39.40;100934.66;5082340;28;45489;-68
2023/07/04 09:33:03;;;;;;;;;6.25;6.25;;;;;23.24;39.68;100931.69;5082173;28;46308;-68
2023/07/04 09:35:30;;;;;;;;;5.00;4.00;;;;;23.30;39.41;100934.81;5082195;28;45264;-68
2023/07/04 09:37:58;;;;;;;;;6.50;5.25;;;;;23.33;39.47;100931.97;5082619;28;45388;-68
2023/07/04 09:40:41;;;;;;;;;5.75;5.00;;;;;23.40;39.42;100937.78;5080705;28;45667;-69
2023/07/04 09:43:08;;;;;;;;;6.00;4.75;;;;;23.44;39.37;100936.59;5082017;28;46163;-68
2023/07/04 09:45:33;;;;;;;;;7.00;4.25;;;;;23.49;39.27;100934.47;5082142;28;45302;-68
2023/07/04 09:47:59;;;;;;;;;7.00;5.75;;;;;23.54;39.13;100926.13;5080689;28;45339;-68
2023/07/04 09:50:31;;;;;;;;;4.75;4.25;;;;;23.62;39.19;100931.88;5072825;28;45259;-69
2023/07/04 09:53:04;;;;;;;;;6.00;6.00;;;;;23.68;39.17;100928.78;5075969;28;46785;-69
2023/07/04 09:55:31;;;;;;;;;6.25;5.00;;;;;23.73;39.32;100924.94;5080665;28;45474;-70
2023/07/04 09:58:15;;;;;;;;;7.00;5.50;;;;;23.81;39.05;100934.19;5080888;28;45318;-70
2023/07/04 10:00:44;;;;;;;;;6.00;6.00;;;;;23.87;38.99;100932.91;5081933;27;45455;-69
2023/07/04 10:03:10;;;;;;;;;8.50;4.50;;;;;23.93;39.22;100927.16;5081489;28;45546;-69
2023/07/04 10:05:37;;;;;;;;;7.25;6.25;;;;;23.98;38.91;100927.69;5081847;28;45423;-68
2023/07/04 10:08:08;;;;;;;;;6.75;5.25;;;;;24.05;39.01;100916.53;5082057;28;45347;-68
2023/07/04 10:10:37;;;;;;;;;5.00;5.00;;;;;24.12;38.79;100918.69;5068305;28;45223;-68
2023/07/04 10:13:06;;;;;;;;;4.50;4.50;;;;;24.19;38.68;100916.47;5082015;28;46527;-67
2023/07/04 10:15:40;;;;;;;;;5.00;5.00;;;;;24.25;38.52;100918.72;5081641;28;45488;-68
2023/07/04 10:18:07;;;;;;;;;6.00;4.75;;;;;24.32;38.49;100914.63;5081769;28;45382;-67
2023/07/04 10:20:39;;;;;;;;;7.00;6.50;;;;;24.38;38.87;100912.47;5080249;28;45552;-67
2023/07/04 10:23:04;;;;;;;;;5.00;4.50;;;;;24.44;39.03;100906.69;5081671;28;45429;-68
2023/07/04 10:25:30;;;;;;;;;6.75;5.25;;;;;24.50;38.82;100899.06;5081310;28;45310;-67
2023/07/04 10:28:06;;;;;;;;;7.75;5.00;;;;;24.57;38.16;100904.88;5081813;28;45322;-67
2023/07/04 10:30:36;;;;;;;;;6.50;4.75;;;;;24.63;38.47;100901.75;5081632;28;45457;-67
2023/07/04 10:33:09;;;;;;;;;9.25;5.25;;;;;24.70;38.47;100910.25;5081389;28;45231;-67
2023/07/04 10:35:39;;;;;;;;;5.75;4.50;;;;;24.77;38.10;100897.25;5081392;28;45314;-67
2023/07/04 10:38:15;;;;;;;;;7.25;5.25;;;;;24.80;38.21;100903.28;5081532;27;45373;-67
2023/07/04 10:40:42;;;;;;;;;6.50;6.00;;;;;24.86;38.61;100896.59;5081526;28;45344;-67
2023/07/04 10:43:23;;;;;;;;;8.00;7.75;;;;;24.94;38.40;100896.03;5081158;28;46456;-67
2023/07/04 10:45:50;;;;;;;;;6.50;6.00;;;;;25.01;38.63;100883.00;5081322;28;45328;-67
2023/07/04 10:48:17;;;;;;;;;8.00;8.00;;;;;25.09;38.34;100888.66;5081079;28;45505;-66
2023/07/04 10:50:48;;;;;;;;;7.50;7.50;;;;;25.19;38.13;100892.41;5076341;28;45266;-67
2023/07/04 10:53:13;;;;;;;;;5.75;5.25;;;;;25.28;38.43;100880.09;5078588;28;46836;-67
2023/07/04 10:55:47;;;;;;;;;4.00;4.00;;;;;25.40;38.18;100887.28;5081057;28;45308;-66
2023/07/04 10:58:18;;;;;;;;;7.00;6.00;;;;;25.44;38.59;100883.38;5079457;28;45520;-66
2023/07/04 11:00:50;;;;;;;;;5.25;4.25;;;;;25.53;38.06;100879.16;5081065;28;45258;-65
2023/07/04 11:03:37;;;;;;;;;5.50;5.50;;;;;25.56;38.50;100873.56;5079334;28;46370;-66
2023/07/04 11:06:09;;;;;;;;;4.50;4.50;;;;;25.59;38.43;100873.31;5080867;28;45177;-66
2023/07/04 11:08:35;;;;;;;;;7.50;7.00;;;;;25.59;38.08;100867.94;5080959;28;45284;-65
2023/07/04 11:11:13;;;;;;;;;9.00;7.00;;;;;25.63;38.47;100866.75;5076046;28;45501;-65
2023/07/04 11:13:50;;;;;;;;;5.50;5.25;;;;;25.64;38.41;100852.28;5060779;28;45363;-66
2023/07/04 11:16:18;;;;;;;;;5.50;5.50;;;;;25.66;38.21;100856.69;5079528;28;45514;-66
2023/07/04 11:18:52;;;;;;;;;7.00;5.75;;;;;25.70;37.97;100858.16;5080681;28;45376;-66
2023/07/04 11:21:19;;;;;;;;;5.50;4.25;;;;;25.72;37.89;100856.22;5080900;28;45446;-64
2023/07/04 11:23:51;;;;;;;;;5.50;5.00;;;;;25.73;37.70;100847.19;5080489;28;46168;-65
2023/07/04 11:26:18;;;;;;;;;7.25;6.50;;;;;25.78;37.71;100850.38;5062705;28;45329;-66